Lady Lauren — WDE7767 — position and weather

sailwx.info

Track history (hours):
 
Tides and Currents Weather Stations Pressure Air Temp Water Temp Dewpoint Dewpoint Depression Visibility Wind Speed Wind Dir Waves Ship Positions

Lady Lauren

More information available from US FCC via Universal Licensing System and Coast Guard Vessel Documentation Center.

Last reported at 2014-Jul-12 13:30 UTC. Time now 2014-Jul-30 19:24 UTC.
Position N 30°02' W 090°37'.
Warning: this ship's position is 18 days out of date.

Length 22 m.

Type: Towing. MMSI: 367397380.

Date/timePositionNaut miles runAvg speedWind from/ knotsBaromVisibWave heightAir tempDewpointWater temp
2014-Jul-12 13:30N 30°02' W 090°37'7 3.0
2014-Jul-12 11:09N 30°02' W 090°29'17 3.6
2014-Jul-12 06:17N 29°57' W 090°10'3 4.0
2014-Jul-12 05:28N 29°55' W 090°07'27 1.9
2014-Jul-11 15:03N 29°33' W 090°26'3 5.4
2014-Jul-11 14:33N 29°34' W 090°29'6 6.1
2014-Jul-11 13:33N 29°35' W 090°36'4 1.8
2014-Jul-11 11:32N 29°36' W 090°40'0 0.0
2014-Jul-11 10:33N 29°36' W 090°40'0 0.0
2014-Jul-11 09:33N 29°36' W 090°40'0 0.0
2014-Jul-11 08:34N 29°36' W 090°40'0 0.0
2014-Jul-11 07:33N 29°36' W 090°40'3 1.9
2014-Jul-11 06:04N 29°35' W 090°43'9 5.1
2014-Jul-11 04:23N 29°32' W 090°52'6 6.9
2014-Jul-11 03:33N 29°35' W 090°58'6 6.2
2014-Jul-11 02:33N 29°38' W 091°04'6 6.1
2014-Jul-11 01:33N 29°41' W 091°10'3 2.9
2014-Jul-11 00:34N 29°42' W 091°13'0 0.0
2014-Jul-10 23:34N 29°42' W 091°13'0 0.0
2014-Jul-10 22:34N 29°42' W 091°13'0 0.0
2014-Jul-10 21:34N 29°42' W 091°13'0 0.0
2014-Jul-10 20:34N 29°42' W 091°13'0 0.0
2014-Jul-10 19:34N 29°42' W 091°13'3 2.7
2014-Jul-10 18:34N 29°41' W 091°10'2 2.5
2014-Jul-10 17:34N 29°40' W 091°08'1 0.7
2014-Jul-10 16:33N 29°39' W 091°07'0 0.0
2014-Jul-10 15:34N 29°39' W 091°07'0 0.0
2014-Jul-10 14:33N 29°39' W 091°07'0 0.2
2014-Jul-10 13:33N 29°39' W 091°07'0 0.0
2014-Jul-10 12:33N 29°39' W 091°07'3 3.1
2014-Jul-10 11:34N 29°41' W 091°10'3 2.8
2014-Jul-10 10:34N 29°42' W 091°13'0 0.0
2014-Jul-10 09:34N 29°42' W 091°13'0 0.0
2014-Jul-10 08:34N 29°42' W 091°13'0 0.0
2014-Jul-10 07:34N 29°42' W 091°13'0 0.0
2014-Jul-10 06:34N 29°42' W 091°13'0 0.0
2014-Jul-10 05:34N 29°42' W 091°13'0 0.0
2014-Jul-10 04:34N 29°42' W 091°13'0 0.0
2014-Jul-10 03:34N 29°42' W 091°13'0 0.0
2014-Jul-10 02:34N 29°42' W 091°13'0 0.0
2014-Jul-10 01:34N 29°42' W 091°13'0 0.0
2014-Jul-10 00:34N 29°42' W 091°13'0 0.0
2014-Jul-09 23:34N 29°42' W 091°13'0 0.0
2014-Jul-09 22:34N 29°42' W 091°13'0 0.0
2014-Jul-09 21:33N 29°42' W 091°13'0 0.0
2014-Jul-09 20:34N 29°42' W 091°13'0 0.0
2014-Jul-09 19:34N 29°42' W 091°13'0 0.0
2014-Jul-09 18:33N 29°42' W 091°13'0 0.0
2014-Jul-09 17:33N 29°42' W 091°13'0 0.0
2014-Jul-09 16:33N 29°42' W 091°13'0 0.0
2014-Jul-09 15:33N 29°42' W 091°13'0 0.0
2014-Jul-09 14:33N 29°42' W 091°13'0 0.0
2014-Jul-09 13:33N 29°42' W 091°13'0 0.0
2014-Jul-09 12:33N 29°42' W 091°13'0 0.0
2014-Jul-09 11:33N 29°42' W 091°13'0 0.0
2014-Jul-09 10:33N 29°42' W 091°13'0 0.0
2014-Jul-09 09:33N 29°42' W 091°13'0 0.0
2014-Jul-09 08:33N 29°42' W 091°13'0 0.0
2014-Jul-09 07:33N 29°42' W 091°13'0 0.0
2014-Jul-09 06:33N 29°42' W 091°13'0 0.0
2014-Jul-09 05:33N 29°42' W 091°13'0 0.0
2014-Jul-09 04:33N 29°42' W 091°13'0 0.0
2014-Jul-09 03:33N 29°42' W 091°13'0 0.0
2014-Jul-09 02:33N 29°42' W 091°13'0 0.0
2014-Jul-09 01:33N 29°42' W 091°13'0 0.0
2014-Jul-09 00:33N 29°42' W 091°13'0 0.0
2014-Jul-08 23:33N 29°42' W 091°13'0 0.0
2014-Jul-08 22:33N 29°42' W 091°13'0 0.0
2014-Jul-08 21:33N 29°42' W 091°13'0 0.0
2014-Jul-08 20:33N 29°42' W 091°13'0 0.0
2014-Jul-08 19:33N 29°42' W 091°13'0 0.0
2014-Jul-08 18:33N 29°42' W 091°13'0 0.0
2014-Jul-08 17:33N 29°42' W 091°13'0 0.0
2014-Jul-08 16:33N 29°42' W 091°13'3 2.8
2014-Jul-08 15:33N 29°40' W 091°14'3 2.8
2014-Jul-08 14:33N 29°42' W 091°13'0 0.0
2014-Jul-08 13:33N 29°42' W 091°13'0 0.0
2014-Jul-08 12:33N 29°42' W 091°13'0 0.0
2014-Jul-08 11:33N 29°42' W 091°13'0 0.0
2014-Jul-08 10:33N 29°42' W 091°13'0 0.0
2014-Jul-08 09:33N 29°42' W 091°13'0 0.0
2014-Jul-08 08:33N 29°42' W 091°13'0 0.0
2014-Jul-08 07:33N 29°42' W 091°13'0 0.0
2014-Jul-08 06:33N 29°42' W 091°13'0 0.0
2014-Jul-08 05:33N 29°42' W 091°13'0 0.0
2014-Jul-08 04:33N 29°42' W 091°13'0 0.0
2014-Jul-08 03:33N 29°42' W 091°13'0 0.0
2014-Jul-08 02:33N 29°42' W 091°13'0 0.0
2014-Jul-08 01:33N 29°42' W 091°13'0 0.0
2014-Jul-08 00:33N 29°42' W 091°13'0 0.0
2014-Jul-07 23:33N 29°42' W 091°13'0 0.0
2014-Jul-07 22:33N 29°42' W 091°13'3 3.1
2014-Jul-07 21:33N 29°41' W 091°10'2 2.0
2014-Jul-07 20:33N 29°40' W 091°08'3 3.0
2014-Jul-07 19:33N 29°41' W 091°11'2 2.2
2014-Jul-07 18:33N 29°42' W 091°13'0 0.1
2014-Jul-07 17:33N 29°42' W 091°13'3 2.8
2014-Jul-07 16:33N 29°40' W 091°14'2 2.1
2014-Jul-07 15:33N 29°41' W 091°13'1 1.2
2014-Jul-07 14:33N 29°42' W 091°13'0 0.0
2014-Jul-07 13:33N 29°42' W 091°13'0 0.0
2014-Jul-07 12:33N 29°42' W 091°13'0 0.0
2014-Jul-07 11:33N 29°42' W 091°13'0 0.0
2014-Jul-07 10:33N 29°42' W 091°13'0 0.0
2014-Jul-07 09:33N 29°42' W 091°13'0 0.0
2014-Jul-07 08:34N 29°42' W 091°13'0 0.0
2014-Jul-07 07:33N 29°42' W 091°13'0 0.0
2014-Jul-07 06:33N 29°42' W 091°13'0 0.0
2014-Jul-07 05:33N 29°42' W 091°13'0 0.0
2014-Jul-07 04:33N 29°42' W 091°13'0 0.0
2014-Jul-07 03:33N 29°42' W 091°13'0 0.0
2014-Jul-07 02:33N 29°42' W 091°13'0 0.0
2014-Jul-07 01:33N 29°42' W 091°13'0 0.0
2014-Jul-07 00:33N 29°42' W 091°13'0 0.0
2014-Jul-06 23:33N 29°42' W 091°13'0 0.0
2014-Jul-06 22:33N 29°42' W 091°13'0 0.0
2014-Jul-06 21:33N 29°42' W 091°13'0 0.0
2014-Jul-06 20:33N 29°42' W 091°13'0 0.0
2014-Jul-06 19:33N 29°42' W 091°13'0 0.0
2014-Jul-06 18:33N 29°42' W 091°13'0 0.0
2014-Jul-06 17:33N 29°42' W 091°13'0 0.0
2014-Jul-06 16:33N 29°42' W 091°13'0 0.0
2014-Jul-06 15:33N 29°42' W 091°13'0 0.0
2014-Jul-06 14:33N 29°42' W 091°13'0 0.0
2014-Jul-06 13:33N 29°42' W 091°13'0 0.0
2014-Jul-06 12:33N 29°42' W 091°13'0 0.0
2014-Jul-06 11:33N 29°42' W 091°13'0 0.0
2014-Jul-06 10:33N 29°42' W 091°13'0 0.0
2014-Jul-06 09:33N 29°42' W 091°13'0 0.0
2014-Jul-06 08:33N 29°42' W 091°13'0 0.0
2014-Jul-06 07:34N 29°42' W 091°13'0 0.0
2014-Jul-06 06:34N 29°42' W 091°13'0 0.0
2014-Jul-06 05:33N 29°42' W 091°13'0 0.0
2014-Jul-06 04:33N 29°42' W 091°13'1 1.3
2014-Jul-06 03:33N 29°41' W 091°13'6 6.0
2014-Jul-06 02:33N 29°38' W 091°19'4 4.0
2014-Jul-06 01:33N 29°40' W 091°15'3 2.6
2014-Jul-06 00:33N 29°42' W 091°13'1 0.9
2014-Jul-05 23:33N 29°42' W 091°13'0 0.0
2014-Jul-05 22:33N 29°42' W 091°13'0 0.0
2014-Jul-05 21:33N 29°42' W 091°13'0 0.0
2014-Jul-05 20:33N 29°42' W 091°13'0 0.0
2014-Jul-05 19:33N 29°42' W 091°13'0 0.0
2014-Jul-05 18:33N 29°42' W 091°13'0 0.0
2014-Jul-05 17:33N 29°42' W 091°13'0 0.0
2014-Jul-05 16:33N 29°42' W 091°13'0 0.0
2014-Jul-05 15:33N 29°42' W 091°13'0 0.0
2014-Jul-05 14:34N 29°42' W 091°13'0 0.0
2014-Jul-05 13:33N 29°42' W 091°13'0 0.0
2014-Jul-05 12:34N 29°42' W 091°13'0 0.0
2014-Jul-05 11:33N 29°42' W 091°13'0 0.0
2014-Jul-05 10:33N 29°42' W 091°13'0 0.0
2014-Jul-05 09:33N 29°42' W 091°13'0 0.0
2014-Jul-05 08:33N 29°42' W 091°13'0 0.0
2014-Jul-05 07:33N 29°42' W 091°13'0 0.0
2014-Jul-05 06:33N 29°42' W 091°13'0 0.0
2014-Jul-05 05:33N 29°42' W 091°13'0 0.0
2014-Jul-05 04:33N 29°42' W 091°13'0 0.0
2014-Jul-05 03:33N 29°42' W 091°13'0 0.0
2014-Jul-05 02:34N 29°42' W 091°13'0 0.0
2014-Jul-05 01:33N 29°42' W 091°13'0 0.0
2014-Jul-05 00:33N 29°42' W 091°13'0 0.0
2014-Jul-04 23:33N 29°42' W 091°13'0 0.0
2014-Jul-04 22:33N 29°42' W 091°13'0 0.0
2014-Jul-04 21:33N 29°42' W 091°13'0 0.0
2014-Jul-04 20:33N 29°42' W 091°13'0 0.0
2014-Jul-04 19:33N 29°42' W 091°13'0 0.0
2014-Jul-04 18:33N 29°42' W 091°13'0 0.0
2014-Jul-04 17:33N 29°42' W 091°13'0 0.0
2014-Jul-04 16:33N 29°42' W 091°13'0 0.0
2014-Jul-04 15:33N 29°42' W 091°13'0 0.0
2014-Jul-04 14:33N 29°42' W 091°13'0 0.0
2014-Jul-04 13:33N 29°42' W 091°13'0 0.0
2014-Jul-04 12:33N 29°42' W 091°13'0 0.0
2014-Jul-04 11:33N 29°42' W 091°13'0 0.0
2014-Jul-04 10:33N 29°42' W 091°13'0 0.0
2014-Jul-04 09:33N 29°42' W 091°13'0 0.0
2014-Jul-04 08:33N 29°42' W 091°13'0 0.0
2014-Jul-04 07:33N 29°42' W 091°13'0 0.0
2014-Jul-04 06:33N 29°42' W 091°13'0 0.0
2014-Jul-04 05:33N 29°42' W 091°13'0 0.0
2014-Jul-04 04:33N 29°42' W 091°13'1 1.2
2014-Jul-04 03:33N 29°41' W 091°13'1 1.2
2014-Jul-04 02:33N 29°42' W 091°13'0 0.0
2014-Jul-04 01:33N 29°42' W 091°13'0 0.0
2014-Jul-04 00:33N 29°42' W 091°13'0 0.0
2014-Jul-03 23:34N 29°42' W 091°13'0 0.0
2014-Jul-03 22:34N 29°42' W 091°13'0 0.0
2014-Jul-03 21:33N 29°42' W 091°13'0 0.0
2014-Jul-03 20:33N 29°42' W 091°13'0 0.0
2014-Jul-03 19:33N 29°42' W 091°13'0 0.0
2014-Jul-03 18:33N 29°42' W 091°13'0 0.0
2014-Jul-03 17:33N 29°42' W 091°13'0 0.0
2014-Jul-03 16:33N 29°42' W 091°13'0 0.0
2014-Jul-03 15:34N 29°42' W 091°13'0 0.1
2014-Jul-03 14:33N 29°42' W 091°13'0 0.1
2014-Jul-03 13:33N 29°42' W 091°13'0 0.1
2014-Jul-03 12:34N 29°42' W 091°13'0 0.0
2014-Jul-03 11:33N 29°42' W 091°13'0 0.0
2014-Jul-03 10:33N 29°42' W 091°13'0 0.0
2014-Jul-03 09:33N 29°42' W 091°13'0 0.0
2014-Jul-03 08:33N 29°42' W 091°13'0 0.0
2014-Jul-03 07:33N 29°42' W 091°13'0 0.0
2014-Jul-03 06:33N 29°42' W 091°13'0 0.0
2014-Jul-03 05:33N 29°42' W 091°13'0 0.0
2014-Jul-03 04:33N 29°42' W 091°13'0 0.0
2014-Jul-03 03:33N 29°42' W 091°13'0 0.0
2014-Jul-03 02:33N 29°42' W 091°13'0 0.3
2014-Jul-03 01:33N 29°42' W 091°13'5 5.1
2014-Jul-03 00:33N 29°39' W 091°17'6 5.8
2014-Jul-02 23:33N 29°39' W 091°24'3 0.4
2014-Jul-02 14:31N 29°41' W 091°28'6 6.2
2014-Jul-02 13:32N 29°39' W 091°21'  
Track history (hours):
 
Tides and Currents Weather Stations Pressure Air Temp Water Temp Dewpoint Dewpoint Depression Visibility Wind Speed Wind Dir Waves Ship Positions

Lady Lauren

More information available from US FCC via Universal Licensing System and Coast Guard Vessel Documentation Center.

Last reported at 2014-Jul-12 13:30 UTC. Time now 2014-Jul-30 19:24 UTC.
Position N 30°02' W 090°37'.
Warning: this ship's position is 18 days out of date.

Length 22 m.

Type: Towing. MMSI: 367397380.

Date/timePositionNaut miles runAvg speedWind from/ knotsBaromVisibWave heightAir tempDewpointWater temp
2014-Jul-12 13:30N 30°02' W 090°37'7 3.0
2014-Jul-12 11:09N 30°02' W 090°29'17 3.6
2014-Jul-12 06:17N 29°57' W 090°10'3 4.0
2014-Jul-12 05:28N 29°55' W 090°07'27 1.9
2014-Jul-11 15:03N 29°33' W 090°26'3 5.4
2014-Jul-11 14:33N 29°34' W 090°29'6 6.1
2014-Jul-11 13:33N 29°35' W 090°36'4 1.8
2014-Jul-11 11:32N 29°36' W 090°40'0 0.0
2014-Jul-11 10:33N 29°36' W 090°40'0 0.0
2014-Jul-11 09:33N 29°36' W 090°40'0 0.0
2014-Jul-11 08:34N 29°36' W 090°40'0 0.0
2014-Jul-11 07:33N 29°36' W 090°40'3 1.9
2014-Jul-11 06:04N 29°35' W 090°43'9 5.1
2014-Jul-11 04:23N 29°32' W 090°52'6 6.9
2014-Jul-11 03:33N 29°35' W 090°58'6 6.2
2014-Jul-11 02:33N 29°38' W 091°04'6 6.1
2014-Jul-11 01:33N 29°41' W 091°10'3 2.9
2014-Jul-11 00:34N 29°42' W 091°13'0 0.0
2014-Jul-10 23:34N 29°42' W 091°13'0 0.0
2014-Jul-10 22:34N 29°42' W 091°13'0 0.0
2014-Jul-10 21:34N 29°42' W 091°13'0 0.0
2014-Jul-10 20:34N 29°42' W 091°13'0 0.0
2014-Jul-10 19:34N 29°42' W 091°13'3 2.7
2014-Jul-10 18:34N 29°41' W 091°10'2 2.5
2014-Jul-10 17:34N 29°40' W 091°08'1 0.7
2014-Jul-10 16:33N 29°39' W 091°07'0 0.0
2014-Jul-10 15:34N 29°39' W 091°07'0 0.0
2014-Jul-10 14:33N 29°39' W 091°07'0 0.2
2014-Jul-10 13:33N 29°39' W 091°07'0 0.0
2014-Jul-10 12:33N 29°39' W 091°07'3 3.1
2014-Jul-10 11:34N 29°41' W 091°10'3 2.8
2014-Jul-10 10:34N 29°42' W 091°13'0 0.0
2014-Jul-10 09:34N 29°42' W 091°13'0 0.0
2014-Jul-10 08:34N 29°42' W 091°13'0 0.0
2014-Jul-10 07:34N 29°42' W 091°13'0 0.0
2014-Jul-10 06:34N 29°42' W 091°13'0 0.0
2014-Jul-10 05:34N 29°42' W 091°13'0 0.0
2014-Jul-10 04:34N 29°42' W 091°13'0 0.0
2014-Jul-10 03:34N 29°42' W 091°13'0 0.0
2014-Jul-10 02:34N 29°42' W 091°13'0 0.0
2014-Jul-10 01:34N 29°42' W 091°13'0 0.0
2014-Jul-10 00:34N 29°42' W 091°13'0 0.0
2014-Jul-09 23:34N 29°42' W 091°13'0 0.0
2014-Jul-09 22:34N 29°42' W 091°13'0 0.0
2014-Jul-09 21:33N 29°42' W 091°13'0 0.0
2014-Jul-09 20:34N 29°42' W 091°13'0 0.0
2014-Jul-09 19:34N 29°42' W 091°13'0 0.0
2014-Jul-09 18:33N 29°42' W 091°13'0 0.0
2014-Jul-09 17:33N 29°42' W 091°13'0 0.0
2014-Jul-09 16:33N 29°42' W 091°13'0 0.0
2014-Jul-09 15:33N 29°42' W 091°13'0 0.0
2014-Jul-09 14:33N 29°42' W 091°13'0 0.0
2014-Jul-09 13:33N 29°42' W 091°13'0 0.0
2014-Jul-09 12:33N 29°42' W 091°13'0 0.0
2014-Jul-09 11:33N 29°42' W 091°13'0 0.0
2014-Jul-09 10:33N 29°42' W 091°13'0 0.0
2014-Jul-09 09:33N 29°42' W 091°13'0 0.0
2014-Jul-09 08:33N 29°42' W 091°13'0 0.0
2014-Jul-09 07:33N 29°42' W 091°13'0 0.0
2014-Jul-09 06:33N 29°42' W 091°13'0 0.0
2014-Jul-09 05:33N 29°42' W 091°13'0 0.0
2014-Jul-09 04:33N 29°42' W 091°13'0 0.0
2014-Jul-09 03:33N 29°42' W 091°13'0 0.0
2014-Jul-09 02:33N 29°42' W 091°13'0 0.0
2014-Jul-09 01:33N 29°42' W 091°13'0 0.0
2014-Jul-09 00:33N 29°42' W 091°13'0 0.0
2014-Jul-08 23:33N 29°42' W 091°13'0 0.0
2014-Jul-08 22:33N 29°42' W 091°13'0 0.0
2014-Jul-08 21:33N 29°42' W 091°13'0 0.0
2014-Jul-08 20:33N 29°42' W 091°13'0 0.0
2014-Jul-08 19:33N 29°42' W 091°13'0 0.0
2014-Jul-08 18:33N 29°42' W 091°13'0 0.0
2014-Jul-08 17:33N 29°42' W 091°13'0 0.0
2014-Jul-08 16:33N 29°42' W 091°13'3 2.8
2014-Jul-08 15:33N 29°40' W 091°14'3 2.8
2014-Jul-08 14:33N 29°42' W 091°13'0 0.0
2014-Jul-08 13:33N 29°42' W 091°13'0 0.0
2014-Jul-08 12:33N 29°42' W 091°13'0 0.0
2014-Jul-08 11:33N 29°42' W 091°13'0 0.0
2014-Jul-08 10:33N 29°42' W 091°13'0 0.0
2014-Jul-08 09:33N 29°42' W 091°13'0 0.0
2014-Jul-08 08:33N 29°42' W 091°13'0 0.0
2014-Jul-08 07:33N 29°42' W 091°13'0 0.0
2014-Jul-08 06:33N 29°42' W 091°13'0 0.0
2014-Jul-08 05:33N 29°42' W 091°13'0 0.0
2014-Jul-08 04:33N 29°42' W 091°13'0 0.0
2014-Jul-08 03:33N 29°42' W 091°13'0 0.0
2014-Jul-08 02:33N 29°42' W 091°13'0 0.0
2014-Jul-08 01:33N 29°42' W 091°13'0 0.0
2014-Jul-08 00:33N 29°42' W 091°13'0 0.0
2014-Jul-07 23:33N 29°42' W 091°13'0 0.0
2014-Jul-07 22:33N 29°42' W 091°13'3 3.1
2014-Jul-07 21:33N 29°41' W 091°10'2 2.0
2014-Jul-07 20:33N 29°40' W 091°08'3 3.0
2014-Jul-07 19:33N 29°41' W 091°11'2 2.2
2014-Jul-07 18:33N 29°42' W 091°13'0 0.1
2014-Jul-07 17:33N 29°42' W 091°13'3 2.8
2014-Jul-07 16:33N 29°40' W 091°14'2 2.1
2014-Jul-07 15:33N 29°41' W 091°13'1 1.2
2014-Jul-07 14:33N 29°42' W 091°13'0 0.0
2014-Jul-07 13:33N 29°42' W 091°13'0 0.0
2014-Jul-07 12:33N 29°42' W 091°13'0 0.0
2014-Jul-07 11:33N 29°42' W 091°13'0 0.0
2014-Jul-07 10:33N 29°42' W 091°13'0 0.0
2014-Jul-07 09:33N 29°42' W 091°13'0 0.0
2014-Jul-07 08:34N 29°42' W 091°13'0 0.0
2014-Jul-07 07:33N 29°42' W 091°13'0 0.0
2014-Jul-07 06:33N 29°42' W 091°13'0 0.0
2014-Jul-07 05:33N 29°42' W 091°13'0 0.0
2014-Jul-07 04:33N 29°42' W 091°13'0 0.0
2014-Jul-07 03:33N 29°42' W 091°13'0 0.0
2014-Jul-07 02:33N 29°42' W 091°13'0 0.0
2014-Jul-07 01:33N 29°42' W 091°13'0 0.0
2014-Jul-07 00:33N 29°42' W 091°13'0 0.0
2014-Jul-06 23:33N 29°42' W 091°13'0 0.0
2014-Jul-06 22:33N 29°42' W 091°13'0 0.0
2014-Jul-06 21:33N 29°42' W 091°13'0 0.0
2014-Jul-06 20:33N 29°42' W 091°13'0 0.0
2014-Jul-06 19:33N 29°42' W 091°13'0 0.0
2014-Jul-06 18:33N 29°42' W 091°13'0 0.0
2014-Jul-06 17:33N 29°42' W 091°13'0 0.0
2014-Jul-06 16:33N 29°42' W 091°13'0 0.0
2014-Jul-06 15:33N 29°42' W 091°13'0 0.0
2014-Jul-06 14:33N 29°42' W 091°13'0 0.0
2014-Jul-06 13:33N 29°42' W 091°13'0 0.0
2014-Jul-06 12:33N 29°42' W 091°13'0 0.0
2014-Jul-06 11:33N 29°42' W 091°13'0 0.0
2014-Jul-06 10:33N 29°42' W 091°13'0 0.0
2014-Jul-06 09:33N 29°42' W 091°13'0 0.0
2014-Jul-06 08:33N 29°42' W 091°13'0 0.0
2014-Jul-06 07:34N 29°42' W 091°13'0 0.0
2014-Jul-06 06:34N 29°42' W 091°13'0 0.0
2014-Jul-06 05:33N 29°42' W 091°13'0 0.0
2014-Jul-06 04:33N 29°42' W 091°13'1 1.3
2014-Jul-06 03:33N 29°41' W 091°13'6 6.0
2014-Jul-06 02:33N 29°38' W 091°19'4 4.0
2014-Jul-06 01:33N 29°40' W 091°15'3 2.6
2014-Jul-06 00:33N 29°42' W 091°13'1 0.9
2014-Jul-05 23:33N 29°42' W 091°13'0 0.0
2014-Jul-05 22:33N 29°42' W 091°13'0 0.0
2014-Jul-05 21:33N 29°42' W 091°13'0 0.0
2014-Jul-05 20:33N 29°42' W 091°13'0 0.0
2014-Jul-05 19:33N 29°42' W 091°13'0 0.0
2014-Jul-05 18:33N 29°42' W 091°13'0 0.0
2014-Jul-05 17:33N 29°42' W 091°13'0 0.0
2014-Jul-05 16:33N 29°42' W 091°13'0 0.0
2014-Jul-05 15:33N 29°42' W 091°13'0 0.0
2014-Jul-05 14:34N 29°42' W 091°13'0 0.0
2014-Jul-05 13:33N 29°42' W 091°13'0 0.0
2014-Jul-05 12:34N 29°42' W 091°13'0 0.0
2014-Jul-05 11:33N 29°42' W 091°13'0 0.0
2014-Jul-05 10:33N 29°42' W 091°13'0 0.0
2014-Jul-05 09:33N 29°42' W 091°13'0 0.0
2014-Jul-05 08:33N 29°42' W 091°13'0 0.0
2014-Jul-05 07:33N 29°42' W 091°13'0 0.0
2014-Jul-05 06:33N 29°42' W 091°13'0 0.0
2014-Jul-05 05:33N 29°42' W 091°13'0 0.0
2014-Jul-05 04:33N 29°42' W 091°13'0 0.0
2014-Jul-05 03:33N 29°42' W 091°13'0 0.0
2014-Jul-05 02:34N 29°42' W 091°13'0 0.0
2014-Jul-05 01:33N 29°42' W 091°13'0 0.0
2014-Jul-05 00:33N 29°42' W 091°13'0 0.0
2014-Jul-04 23:33N 29°42' W 091°13'0 0.0
2014-Jul-04 22:33N 29°42' W 091°13'0 0.0
2014-Jul-04 21:33N 29°42' W 091°13'0 0.0
2014-Jul-04 20:33N 29°42' W 091°13'0 0.0
2014-Jul-04 19:33N 29°42' W 091°13'0 0.0
2014-Jul-04 18:33N 29°42' W 091°13'0 0.0
2014-Jul-04 17:33N 29°42' W 091°13'0 0.0
2014-Jul-04 16:33N 29°42' W 091°13'0 0.0
2014-Jul-04 15:33N 29°42' W 091°13'0 0.0
2014-Jul-04 14:33N 29°42' W 091°13'0 0.0
2014-Jul-04 13:33N 29°42' W 091°13'0 0.0
2014-Jul-04 12:33N 29°42' W 091°13'0 0.0
2014-Jul-04 11:33N 29°42' W 091°13'0 0.0
2014-Jul-04 10:33N 29°42' W 091°13'0 0.0
2014-Jul-04 09:33N 29°42' W 091°13'0 0.0
2014-Jul-04 08:33N 29°42' W 091°13'0 0.0
2014-Jul-04 07:33N 29°42' W 091°13'0 0.0
2014-Jul-04 06:33N 29°42' W 091°13'0 0.0
2014-Jul-04 05:33N 29°42' W 091°13'0 0.0
2014-Jul-04 04:33N 29°42' W 091°13'1 1.2
2014-Jul-04 03:33N 29°41' W 091°13'1 1.2
2014-Jul-04 02:33N 29°42' W 091°13'0 0.0
2014-Jul-04 01:33N 29°42' W 091°13'0 0.0
2014-Jul-04 00:33N 29°42' W 091°13'0 0.0
2014-Jul-03 23:34N 29°42' W 091°13'0 0.0
2014-Jul-03 22:34N 29°42' W 091°13'0 0.0
2014-Jul-03 21:33N 29°42' W 091°13'0 0.0
2014-Jul-03 20:33N 29°42' W 091°13'0 0.0
2014-Jul-03 19:33N 29°42' W 091°13'0 0.0
2014-Jul-03 18:33N 29°42' W 091°13'0 0.0
2014-Jul-03 17:33N 29°42' W 091°13'0 0.0
2014-Jul-03 16:33N 29°42' W 091°13'0 0.0
2014-Jul-03 15:34N 29°42' W 091°13'0 0.1
2014-Jul-03 14:33N 29°42' W 091°13'0 0.1
2014-Jul-03 13:33N 29°42' W 091°13'0 0.1
2014-Jul-03 12:34N 29°42' W 091°13'0 0.0
2014-Jul-03 11:33N 29°42' W 091°13'0 0.0
2014-Jul-03 10:33N 29°42' W 091°13'0 0.0
2014-Jul-03 09:33N 29°42' W 091°13'0 0.0
2014-Jul-03 08:33N 29°42' W 091°13'0 0.0
2014-Jul-03 07:33N 29°42' W 091°13'0 0.0
2014-Jul-03 06:33N 29°42' W 091°13'0 0.0
2014-Jul-03 05:33N 29°42' W 091°13'0 0.0
2014-Jul-03 04:33N 29°42' W 091°13'0 0.0
2014-Jul-03 03:33N 29°42' W 091°13'0 0.0
2014-Jul-03 02:33N 29°42' W 091°13'0 0.3
2014-Jul-03 01:33N 29°42' W 091°13'5 5.1
2014-Jul-03 00:33N 29°39' W 091°17'6 5.8
2014-Jul-02 23:33N 29°39' W 091°24'3 0.4
2014-Jul-02 14:31N 29°41' W 091°28'6 6.2
2014-Jul-02 13:32N 29°39' W 091°21'  

Dump ship's entire track history